createdAt,value
2022-12-11T00:00:22.786Z,67.14
2022-12-11T00:03:16.312Z,66.87
2022-12-11T00:05:49.479Z,66.95
2022-12-11T00:08:21.667Z,66.74
2022-12-11T00:10:54.220Z,66.63
2022-12-11T00:13:26.491Z,66.53
2022-12-11T00:16:01.010Z,66.67
2022-12-11T00:18:33.279Z,66.71
2022-12-11T00:21:07.088Z,66.74
2022-12-11T00:23:39.560Z,66.86
2022-12-11T00:26:15.004Z,66.79
2022-12-11T00:28:47.980Z,66.61
2022-12-11T00:31:22.721Z,66.71
2022-12-11T00:33:55.642Z,66.73
2022-12-11T00:36:29.564Z,66.71
2022-12-11T00:39:05.367Z,66.80
2022-12-11T00:41:38.080Z,66.80
2022-12-11T00:44:10.414Z,66.95
2022-12-11T00:46:43.283Z,67.00
2022-12-11T00:49:15.264Z,67.02
2022-12-11T00:51:47.838Z,66.97
2022-12-11T00:54:21.337Z,66.97
2022-12-11T00:56:53.299Z,67.01
2022-12-11T00:59:25.575Z,67.02
2022-12-11T01:01:57.840Z,66.95
2022-12-11T01:04:29.800Z,66.94
2022-12-11T01:07:02.686Z,67.11
2022-12-11T01:09:52.361Z,67.09
2022-12-11T01:12:24.938Z,66.90
2022-12-11T01:14:57.310Z,66.81
2022-12-11T01:17:29.687Z,66.89
2022-12-11T01:20:02.061Z,66.77
2022-12-11T01:22:34.436Z,66.58
2022-12-11T01:25:07.350Z,66.31
2022-12-11T01:27:39.890Z,66.38
2022-12-11T01:30:14.491Z,66.40
2022-12-11T01:32:48.088Z,66.34
2022-12-11T01:35:20.893Z,66.22
2022-12-11T01:37:53.368Z,66.08
2022-12-11T01:40:26.276Z,66.17
2022-12-11T01:42:58.624Z,66.26
2022-12-11T01:45:44.822Z,66.07
2022-12-11T01:48:22.620Z,66.25
2022-12-11T01:50:57.665Z,66.14
2022-12-11T01:53:32.892Z,66.15
2022-12-11T01:56:06.017Z,66.25
2022-12-11T01:58:43.373Z,66.22
2022-12-11T02:01:21.720Z,66.22
2022-12-11T02:03:54.465Z,66.09
2022-12-11T02:06:40.424Z,66.35
2022-12-11T02:09:16.002Z,66.46
2022-12-11T02:11:59.842Z,66.52
2022-12-11T02:14:40.617Z,66.43
2022-12-11T02:17:17.695Z,66.35
2022-12-11T02:20:04.708Z,66.49
2022-12-11T02:22:56.556Z,66.56
2022-12-11T02:25:34.167Z,66.46
2022-12-11T02:28:18.809Z,66.40
2022-12-11T02:30:56.796Z,66.33
2022-12-11T02:33:35.416Z,66.18
2022-12-11T02:36:11.111Z,66.00
2022-12-11T02:38:47.021Z,65.90
2022-12-11T02:41:19.187Z,65.88
2022-12-11T02:43:53.811Z,65.43
2022-12-11T02:46:27.716Z,65.57
2022-12-11T02:49:01.307Z,65.62
2022-12-11T02:51:39.022Z,65.20
2022-12-11T02:54:15.689Z,65.36
2022-12-11T02:56:52.054Z,65.31
2022-12-11T02:59:28.625Z,65.31
2022-12-11T03:02:01.393Z,65.38
2022-12-11T03:04:35.314Z,65.47
2022-12-11T03:07:13.426Z,65.70
2022-12-11T03:09:48.557Z,65.63
2022-12-11T03:12:25.436Z,65.45
2022-12-11T03:15:00.889Z,65.57
2022-12-11T03:17:37.249Z,65.52
2022-12-11T03:20:21.660Z,65.55
2022-12-11T03:23:00.010Z,65.37
2022-12-11T03:25:37.812Z,65.35
2022-12-11T03:28:15.202Z,65.34
2022-12-11T03:30:50.649Z,65.45
2022-12-11T03:33:26.907Z,65.48
2022-12-11T03:36:02.454Z,65.42
2022-12-11T03:38:38.520Z,65.47
2022-12-11T03:41:13.138Z,65.37
2022-12-11T03:43:45.831Z,65.55
2022-12-11T03:46:20.165Z,65.49
2022-12-11T03:48:53.734Z,65.42
2022-12-11T03:51:26.926Z,65.45
2022-12-11T03:54:00.834Z,65.47
2022-12-11T03:56:36.995Z,65.48
2022-12-11T03:59:10.005Z,65.26
2022-12-11T04:01:44.004Z,65.28
2022-12-11T04:04:16.791Z,65.34
2022-12-11T04:06:49.460Z,65.57
2022-12-11T04:09:22.642Z,65.66
2022-12-11T04:11:54.891Z,65.70
2022-12-11T04:14:45.000Z,65.77
2022-12-11T04:17:37.611Z,65.30
2022-12-11T04:20:29.802Z,65.18
2022-12-11T04:23:19.972Z,65.05
2022-12-11T04:25:52.650Z,64.65
2022-12-11T04:28:25.124Z,64.52
2022-12-11T04:30:57.544Z,64.41
2022-12-11T04:33:30.635Z,64.47
2022-12-11T04:36:03.066Z,64.48
2022-12-11T04:38:35.944Z,64.44
2022-12-11T04:41:10.569Z,64.45
2022-12-11T04:43:45.346Z,64.45
2022-12-11T04:46:21.426Z,64.65
2022-12-11T04:48:57.568Z,64.34
2022-12-11T04:51:31.014Z,64.37
2022-12-11T04:54:03.795Z,64.27
2022-12-11T04:56:36.064Z,64.22
2022-12-11T04:59:08.634Z,64.37
2022-12-11T05:01:40.780Z,64.49
2022-12-11T05:04:13.387Z,64.48
2022-12-11T05:06:45.450Z,64.61
2022-12-11T05:09:17.722Z,64.62
2022-12-11T05:11:49.989Z,64.66
2022-12-11T05:14:22.673Z,64.89
2022-12-11T05:16:55.044Z,64.72
2022-12-11T05:19:27.924Z,64.62
2022-12-11T05:21:59.992Z,64.52
2022-12-11T05:24:32.055Z,64.40
2022-12-11T05:27:04.152Z,64.58
2022-12-11T05:29:37.618Z,64.70
2022-12-11T05:32:10.915Z,64.66
2022-12-11T05:34:43.387Z,64.58
2022-12-11T05:37:15.559Z,64.37
2022-12-11T05:39:47.722Z,64.32
2022-12-11T05:42:22.868Z,64.42
2022-12-11T05:44:59.426Z,64.42
2022-12-11T05:47:31.938Z,64.41
2022-12-11T05:50:04.581Z,64.45
2022-12-11T05:52:36.953Z,64.46
2022-12-11T05:55:10.745Z,64.46
2022-12-11T05:57:43.232Z,64.53
2022-12-11T06:00:16.243Z,64.50
2022-12-11T06:02:48.649Z,64.53
2022-12-11T06:05:21.065Z,64.63
2022-12-11T06:07:53.347Z,64.47
2022-12-11T06:10:25.606Z,64.34
2022-12-11T06:12:57.771Z,64.34
2022-12-11T06:15:29.947Z,64.17
2022-12-11T06:18:02.106Z,64.20
2022-12-11T06:20:36.454Z,64.07
2022-12-11T06:23:10.133Z,64.00
2022-12-11T06:25:42.906Z,63.93
2022-12-11T06:28:15.383Z,63.70
2022-12-11T06:30:47.449Z,63.42
2022-12-11T06:33:19.718Z,63.44
2022-12-11T06:35:52.298Z,63.33
2022-12-11T06:38:24.973Z,63.35
2022-12-11T06:40:59.599Z,63.37
2022-12-11T06:43:32.076Z,63.19
2022-12-11T06:46:06.513Z,63.03
2022-12-11T06:48:39.236Z,62.87
2022-12-11T06:51:13.592Z,62.98
2022-12-11T06:53:46.479Z,63.09
2022-12-11T06:56:18.647Z,63.06
2022-12-11T06:58:52.253Z,63.16
2022-12-11T07:01:27.774Z,62.86
2022-12-11T07:04:01.800Z,62.73
2022-12-11T07:06:34.072Z,62.68
2022-12-11T07:09:07.917Z,62.98
2022-12-11T07:11:40.043Z,62.89
2022-12-11T07:14:12.824Z,62.80
2022-12-11T07:16:45.118Z,62.76
2022-12-11T07:19:17.874Z,62.48
2022-12-11T07:21:50.043Z,62.50
2022-12-11T07:24:22.313Z,62.48
2022-12-11T07:26:54.374Z,62.64
2022-12-11T07:29:26.646Z,62.65
2022-12-11T07:31:59.830Z,62.93
2022-12-11T07:34:32.620Z,62.85
2022-12-11T07:37:05.018Z,62.69
2022-12-11T07:39:37.609Z,62.56
2022-12-11T07:42:09.941Z,62.42
2022-12-11T07:44:42.211Z,62.37
2022-12-11T07:47:14.889Z,62.12
2022-12-11T07:49:47.171Z,62.35
2022-12-11T07:52:20.163Z,62.22
2022-12-11T07:54:52.320Z,62.42
2022-12-11T07:57:24.381Z,62.50
2022-12-11T07:59:56.546Z,62.88
2022-12-11T08:02:32.622Z,62.65
2022-12-11T08:05:10.916Z,62.69
2022-12-11T08:07:43.446Z,62.64
2022-12-11T08:10:15.964Z,62.89
2022-12-11T08:12:48.234Z,62.82
2022-12-11T08:15:20.792Z,62.75
2022-12-11T08:17:53.285Z,62.52
2022-12-11T08:20:25.761Z,62.79
2022-12-11T08:22:59.286Z,62.73
2022-12-11T08:25:31.937Z,62.87
2022-12-11T08:28:04.615Z,63.15
2022-12-11T08:30:40.306Z,63.06
2022-12-11T08:33:12.845Z,63.30
2022-12-11T08:35:47.059Z,63.58
2022-12-11T08:38:24.988Z,63.63
2022-12-11T08:40:57.844Z,64.14
2022-12-11T08:43:30.010Z,64.40
2022-12-11T08:46:02.194Z,64.71
2022-12-11T08:48:34.857Z,64.59
2022-12-11T08:51:08.921Z,64.47
2022-12-11T08:53:41.048Z,64.49
2022-12-11T08:56:15.868Z,64.13
2022-12-11T08:58:48.854Z,64.01
2022-12-11T09:01:23.972Z,63.55
2022-12-11T09:03:57.797Z,63.75
2022-12-11T09:06:31.904Z,63.47
2022-12-11T09:09:04.998Z,63.45
2022-12-11T09:11:38.289Z,63.19
2022-12-11T09:14:11.291Z,62.81
2022-12-11T09:16:43.777Z,62.91
2022-12-11T09:19:18.167Z,62.71
2022-12-11T09:21:50.438Z,62.83
2022-12-11T09:24:22.721Z,62.62
2022-12-11T09:26:55.491Z,62.63
2022-12-11T09:29:27.763Z,62.62
2022-12-11T09:32:00.847Z,62.71
2022-12-11T09:34:33.430Z,62.47
2022-12-11T09:37:05.490Z,62.70
2022-12-11T09:39:37.861Z,62.96
2022-12-11T09:42:16.171Z,62.78
2022-12-11T09:44:52.817Z,63.03
2022-12-11T09:47:28.953Z,62.89
2022-12-11T09:50:14.282Z,62.88
2022-12-11T09:53:02.729Z,63.14
2022-12-11T09:55:42.178Z,63.40
2022-12-11T09:58:22.150Z,63.39
2022-12-11T10:01:00.428Z,63.29
2022-12-11T10:04:04.749Z,63.48
2022-12-11T10:06:43.270Z,63.14
2022-12-11T10:09:24.653Z,63.38
2022-12-11T10:12:07.260Z,63.51
2022-12-11T10:14:57.122Z,63.30
2022-12-11T10:17:33.137Z,63.27
2022-12-11T10:20:23.837Z,63.37
2022-12-11T10:22:57.193Z,63.55
2022-12-11T10:25:32.539Z,63.72
2022-12-11T10:28:14.583Z,63.64
2022-12-11T10:30:58.950Z,63.99
2022-12-11T10:33:42.221Z,64.19
2022-12-11T10:36:20.511Z,64.49
2022-12-11T10:38:52.672Z,64.89
2022-12-11T10:41:35.001Z,65.10
2022-12-11T10:44:18.637Z,65.14
2022-12-11T10:47:04.841Z,65.40
2022-12-11T10:49:39.931Z,65.25
2022-12-11T10:52:21.455Z,65.01
2022-12-11T10:55:00.586Z,64.99
2022-12-11T10:57:35.527Z,64.66
2022-12-11T11:00:09.897Z,64.30
2022-12-11T11:02:46.392Z,64.55
2022-12-11T11:05:29.324Z,64.10
2022-12-11T11:08:14.597Z,63.75
2022-12-11T11:10:57.831Z,64.02
2022-12-11T11:13:32.772Z,63.99
2022-12-11T11:16:10.026Z,63.92
2022-12-11T11:18:43.645Z,63.87
2022-12-11T11:21:21.996Z,63.34
2022-12-11T11:23:55.526Z,63.66
2022-12-11T11:26:43.905Z,63.37
2022-12-11T11:29:30.104Z,63.28
2022-12-11T11:32:16.911Z,63.21
2022-12-11T11:34:49.385Z,63.41
2022-12-11T11:37:33.841Z,63.24
2022-12-11T11:40:14.850Z,63.15
2022-12-11T11:42:55.378Z,63.29
2022-12-11T11:45:32.770Z,63.21
2022-12-11T11:48:19.375Z,63.18
2022-12-11T11:50:54.100Z,63.18
2022-12-11T11:53:33.146Z,63.14
2022-12-11T11:56:17.686Z,63.12
2022-12-11T11:58:57.689Z,63.03
2022-12-11T12:01:30.933Z,63.03
2022-12-11T12:04:05.657Z,63.00
2022-12-11T12:06:52.057Z,62.93
2022-12-11T12:09:37.604Z,62.97
2022-12-11T12:12:25.464Z,62.91
2022-12-11T12:15:18.427Z,63.22
2022-12-11T12:17:56.590Z,63.28
2022-12-11T12:20:38.843Z,63.21
2022-12-11T12:23:30.723Z,63.32
2022-12-11T12:26:07.851Z,63.10
2022-12-11T12:28:49.341Z,63.35
2022-12-11T12:31:34.083Z,63.21
2022-12-11T12:34:18.247Z,63.05
2022-12-11T12:37:01.271Z,63.28
2022-12-11T12:39:41.083Z,62.98
2022-12-11T12:42:25.488Z,63.19
2022-12-11T12:45:05.047Z,63.13
2022-12-11T12:47:37.995Z,63.54
2022-12-11T12:50:16.922Z,63.41
2022-12-11T12:52:52.397Z,63.72
2022-12-11T12:55:27.370Z,64.03
2022-12-11T12:58:01.514Z,64.15
2022-12-11T13:00:36.901Z,63.91
2022-12-11T13:03:18.405Z,63.94
2022-12-11T13:06:02.283Z,64.04
2022-12-11T13:08:41.289Z,63.82
2022-12-11T13:11:16.756Z,63.69
2022-12-11T13:14:03.321Z,63.42
2022-12-11T13:16:41.656Z,63.52
2022-12-11T13:19:31.961Z,63.62
2022-12-11T13:22:21.745Z,63.38
2022-12-11T13:25:02.120Z,63.98
2022-12-11T13:27:43.800Z,63.87
2022-12-11T13:30:26.870Z,64.21
2022-12-11T13:33:15.572Z,64.45
2022-12-11T13:35:46.819Z,64.56
2022-12-11T13:38:22.465Z,64.84
2022-12-11T13:40:56.995Z,64.70
2022-12-11T13:43:32.840Z,64.67
2022-12-11T13:46:07.011Z,64.77
2022-12-11T13:48:46.702Z,64.46
2022-12-11T13:51:21.395Z,65.00
2022-12-11T13:54:06.262Z,65.27
2022-12-11T13:56:38.767Z,65.09
2022-12-11T13:59:25.791Z,65.22
2022-12-11T14:02:01.910Z,65.12
2022-12-11T14:04:35.639Z,65.44
2022-12-11T14:07:11.908Z,65.42
2022-12-11T14:09:44.790Z,65.46
2022-12-11T14:12:22.797Z,65.78
2022-12-11T14:14:58.863Z,65.70
2022-12-11T14:17:34.313Z,65.55
2022-12-11T14:20:17.523Z,65.84
2022-12-11T14:22:50.322Z,65.59
2022-12-11T14:25:26.159Z,65.45
2022-12-11T14:27:58.842Z,65.88
2022-12-11T14:30:34.285Z,66.05
2022-12-11T14:33:07.680Z,66.22
2022-12-11T14:35:43.634Z,66.58
2022-12-11T14:38:18.056Z,66.52
2022-12-11T14:40:54.729Z,65.90
2022-12-11T14:43:34.986Z,66.11
2022-12-11T14:46:11.126Z,66.25
2022-12-11T14:48:49.456Z,65.95
2022-12-11T14:51:22.851Z,65.75
2022-12-11T14:53:56.864Z,65.46
2022-12-11T14:56:31.201Z,65.47
2022-12-11T14:59:10.401Z,65.47
2022-12-11T15:01:43.530Z,65.14
2022-12-11T15:04:28.262Z,64.94
2022-12-11T15:07:00.759Z,65.02
2022-12-11T15:09:40.833Z,64.92
2022-12-11T15:12:15.724Z,65.15
2022-12-11T15:14:53.010Z,65.57
2022-12-11T15:17:26.919Z,65.54
2022-12-11T15:20:04.825Z,65.79
2022-12-11T15:22:37.864Z,65.50
2022-12-11T15:25:22.223Z,65.87
2022-12-11T15:27:57.104Z,66.33
2022-12-11T15:30:33.258Z,66.01
2022-12-11T15:33:18.938Z,66.39
2022-12-11T15:36:00.030Z,66.75
2022-12-11T15:38:35.112Z,66.70
2022-12-11T15:41:07.974Z,66.40
2022-12-11T15:43:40.814Z,66.48
2022-12-11T15:46:14.128Z,66.77
2022-12-11T15:48:46.277Z,66.89
2022-12-11T15:51:18.648Z,66.97
2022-12-11T15:53:50.917Z,66.71
2022-12-11T15:56:23.505Z,66.82
2022-12-11T15:58:56.992Z,66.82
2022-12-11T16:01:29.520Z,66.99
2022-12-11T16:04:05.217Z,66.96
2022-12-11T16:06:38.204Z,66.67
2022-12-11T16:09:10.374Z,66.61
2022-12-11T16:11:42.437Z,66.50
2022-12-11T16:14:14.809Z,67.73
2022-12-11T16:16:46.979Z,68.11
2022-12-11T16:19:19.758Z,67.03
2022-12-11T16:21:53.365Z,65.98
2022-12-11T16:24:25.731Z,65.28
2022-12-11T16:26:58.204Z,64.74
2022-12-11T16:29:30.701Z,64.52
2022-12-11T16:32:02.846Z,64.25
2022-12-11T16:34:34.910Z,64.04
2022-12-11T16:37:07.737Z,63.99
2022-12-11T16:39:43.146Z,63.29
2022-12-11T16:42:15.509Z,63.03
2022-12-11T16:44:48.495Z,62.53
2022-12-11T16:47:20.969Z,62.78
2022-12-11T16:49:53.441Z,62.59
2022-12-11T16:52:25.757Z,62.63
2022-12-11T16:54:59.722Z,62.85
2022-12-11T16:57:32.198Z,62.57
2022-12-11T17:00:05.695Z,62.34
2022-12-11T17:02:38.225Z,62.40
2022-12-11T17:05:11.244Z,62.34
2022-12-11T17:07:43.634Z,62.26
2022-12-11T17:10:15.719Z,62.47
2022-12-11T17:12:48.171Z,62.68
2022-12-11T17:15:20.951Z,62.38
2022-12-11T17:17:53.121Z,62.44
2022-12-11T17:20:25.831Z,62.54
2022-12-11T17:22:58.171Z,62.37
2022-12-11T17:25:30.234Z,62.36
2022-12-11T17:28:02.501Z,62.40
2022-12-11T17:30:35.082Z,62.07
2022-12-11T17:33:07.560Z,62.32
2022-12-11T17:35:40.851Z,62.20
2022-12-11T17:38:12.917Z,62.05
2022-12-11T17:40:46.205Z,62.17
2022-12-11T17:43:18.381Z,61.94
2022-12-11T17:45:53.315Z,61.92
2022-12-11T17:48:26.199Z,62.14
2022-12-11T17:50:58.976Z,62.07
2022-12-11T17:53:31.347Z,62.08
2022-12-11T17:56:06.380Z,62.06
2022-12-11T17:58:38.857Z,62.31
2022-12-11T18:01:12.662Z,62.06
2022-12-11T18:03:45.177Z,62.33
2022-12-11T18:06:18.840Z,61.79
2022-12-11T18:08:51.826Z,61.66
2022-12-11T18:11:25.061Z,61.72
2022-12-11T18:13:57.693Z,61.56
2022-12-11T18:16:32.161Z,61.65
2022-12-11T18:19:04.280Z,61.16
2022-12-11T18:21:40.855Z,61.37
2022-12-11T18:24:13.535Z,61.34
2022-12-11T18:26:46.348Z,61.37
2022-12-11T18:29:18.889Z,61.40
2022-12-11T18:31:54.641Z,61.56
2022-12-11T18:34:26.807Z,61.52
2022-12-11T18:36:59.489Z,61.52
2022-12-11T18:39:31.858Z,61.41
2022-12-11T18:42:31.605Z,61.25
2022-12-11T18:44:56.468Z,61.31
2022-12-11T18:47:28.845Z,61.14
2022-12-11T18:50:07.126Z,61.13
2022-12-11T18:52:40.138Z,61.10
2022-12-11T18:55:12.767Z,61.08
2022-12-11T18:57:45.793Z,61.01
2022-12-11T19:00:19.908Z,61.20
2022-12-11T19:02:54.161Z,61.06
2022-12-11T19:05:26.482Z,60.98
2022-12-11T19:07:58.595Z,60.95
2022-12-11T19:10:31.454Z,60.89
2022-12-11T19:13:03.827Z,60.45
2022-12-11T19:15:38.651Z,60.68
2022-12-11T19:18:11.134Z,60.11
2022-12-11T19:20:56.747Z,60.03
2022-12-11T19:23:35.329Z,60.08
2022-12-11T19:26:10.766Z,59.97
2022-12-11T19:28:43.863Z,59.88
2022-12-11T19:31:19.355Z,60.22
2022-12-11T19:33:53.320Z,60.15
2022-12-11T19:36:27.736Z,60.09
2022-12-11T19:39:02.210Z,59.94
2022-12-11T19:41:35.451Z,60.12
2022-12-11T19:44:07.780Z,60.23
2022-12-11T19:46:40.319Z,60.10
2022-12-11T19:49:13.589Z,59.78
2022-12-11T19:51:46.255Z,60.05
2022-12-11T19:54:19.328Z,59.69
2022-12-11T19:56:51.631Z,59.53
2022-12-11T19:59:24.000Z,59.65
2022-12-11T20:01:56.313Z,59.52
2022-12-11T20:04:29.873Z,59.55
2022-12-11T20:07:03.268Z,59.44
2022-12-11T20:09:36.562Z,59.28
2022-12-11T20:12:10.555Z,59.29
2022-12-11T20:14:42.610Z,59.37
2022-12-11T20:17:15.475Z,59.63
2022-12-11T20:19:47.687Z,59.37
2022-12-11T20:22:20.162Z,59.33
2022-12-11T20:24:52.334Z,59.10
2022-12-11T20:27:26.244Z,58.76
2022-12-11T20:29:58.411Z,58.98
2022-12-11T20:32:31.344Z,59.05
2022-12-11T20:35:04.374Z,58.90
2022-12-11T20:37:37.363Z,58.99
2022-12-11T20:40:12.355Z,58.58
2022-12-11T20:42:44.570Z,58.71
2022-12-11T20:45:17.446Z,58.75
2022-12-11T20:47:50.232Z,58.77
2022-12-11T20:50:23.119Z,58.93
2022-12-11T20:52:55.587Z,58.98
2022-12-11T20:55:27.757Z,58.79
2022-12-11T20:57:59.925Z,58.90
2022-12-11T21:00:32.202Z,58.69
2022-12-11T21:03:04.257Z,59.07
2022-12-11T21:05:40.939Z,59.15
2022-12-11T21:08:14.209Z,59.10
2022-12-11T21:10:47.516Z,59.22
2022-12-11T21:13:20.125Z,58.94
2022-12-11T21:15:52.914Z,59.30
2022-12-11T21:18:26.169Z,59.22
2022-12-11T21:21:00.180Z,59.10
